Time;durP1;ratioP1;P1;durP2;ratioP2;P2;SDS_P1;SDS_P2;PMS_P1;PMS_P2;Temp;Humidity;BMP_temperature;BMP_pressure;BME280_temperature;BME280_humidity;BME280_pressure;Samples;Min_cycle;Max_cycle;Signal;HPM_P1;HPM_P2
2022/05/02 00:00:53;;;;;;;7.10;4.00;;;17.30;62.80;;;;;;5042586;28;20120;-63
2022/05/02 00:03:18;;;;;;;7.20;3.67;;;17.30;62.80;;;;;;5069088;28;20425;-63
2022/05/02 00:05:44;;;;;;;7.60;3.40;;;17.30;62.80;;;;;;5037485;28;20087;-63
2022/05/02 00:08:10;;;;;;;6.88;3.83;;;17.20;62.80;;;;;;5046822;28;20044;-63
2022/05/02 00:10:35;;;;;;;6.00;3.72;;;17.30;62.80;;;;;;5047044;28;20021;-63
2022/05/02 00:13:01;;;;;;;6.18;3.50;;;17.30;62.80;;;;;;5047548;28;20032;-62
2022/05/02 00:15:27;;;;;;;6.80;3.70;;;17.30;62.90;;;;;;5043525;28;20029;-63
2022/05/02 00:17:56;;;;;;;6.47;3.72;;;17.20;62.80;;;;;;5034562;28;20021;-63
2022/05/02 00:20:22;;;;;;;6.80;4.10;;;17.20;62.80;;;;;;5032603;28;20040;-62
2022/05/02 00:22:48;;;;;;;6.13;3.50;;;17.20;62.90;;;;;;5047571;28;20027;-63
2022/05/02 00:25:14;;;;;;;8.07;3.70;;;17.20;62.80;;;;;;5041498;28;20120;-63
2022/05/02 00:27:40;;;;;;;6.65;3.75;;;17.20;62.80;;;;;;5044034;28;20098;-63
2022/05/02 00:30:10;;;;;;;6.15;3.50;;;17.20;62.80;;;;;;5039779;28;20052;-63
2022/05/02 00:32:35;;;;;;;5.90;3.30;;;17.20;62.80;;;;;;5034673;28;20024;-63
2022/05/02 00:35:01;;;;;;;5.28;3.40;;;17.20;62.90;;;;;;5036723;28;20033;-62
2022/05/02 00:37:29;;;;;;;5.93;3.50;;;17.20;62.80;;;;;;5043311;28;20021;-63
2022/05/02 00:39:54;;;;;;;6.05;3.45;;;17.20;62.90;;;;;;5044073;28;20033;-63
2022/05/02 00:42:20;;;;;;;8.18;4.05;;;17.20;62.80;;;;;;5041192;28;20021;-63
2022/05/02 00:44:46;;;;;;;6.22;3.53;;;17.20;62.90;;;;;;5035258;28;20092;-63
2022/05/02 00:47:15;;;;;;;6.68;3.53;;;17.20;62.90;;;;;;5040519;28;20060;-63
2022/05/02 00:49:41;;;;;;;5.50;3.30;;;17.20;62.90;;;;;;5049354;28;20037;-61
2022/05/02 00:52:07;;;;;;;6.30;3.42;;;17.20;62.90;;;;;;5046390;28;20402;-63
2022/05/02 00:54:33;;;;;;;5.50;3.50;;;17.20;62.90;;;;;;5044078;28;20025;-63
2022/05/02 00:56:59;;;;;;;5.15;3.40;;;17.20;63.90;;;;;;5040962;28;20025;-63
2022/05/02 00:59:25;;;;;;;6.15;3.80;;;17.20;62.90;;;;;;5035718;28;20119;-63
2022/05/02 01:01:50;;;;;;;6.88;3.40;;;17.20;62.90;;;;;;5042666;28;20460;-63
2022/05/02 01:04:16;;;;;;;5.85;3.60;;;17.20;62.90;;;;;;5049738;28;20621;-63
2022/05/02 01:09:26;;;;;;;5.75;3.00;;;17.20;62.90;;;;;;5043431;28;20090;-63
2022/05/02 01:11:53;;;;;;;6.68;3.50;;;17.20;62.90;;;;;;5036633;28;20033;-63
2022/05/02 01:14:19;;;;;;;6.07;3.40;;;17.20;62.90;;;;;;5038548;28;20040;-63
2022/05/02 01:16:45;;;;;;;5.60;3.35;;;17.10;62.90;;;;;;5041632;28;20033;-63
2022/05/02 01:19:10;;;;;;;6.10;3.25;;;17.20;62.90;;;;;;5042814;28;20060;-63
2022/05/02 01:21:37;;;;;;;5.57;3.50;;;17.10;62.90;;;;;;5039528;28;20040;-62
2022/05/02 01:24:03;;;;;;;6.43;3.30;;;17.10;62.90;;;;;;5037405;28;20021;-63
2022/05/02 01:26:29;;;;;;;6.25;3.50;;;17.10;62.90;;;;;;5039696;28;20045;-63
2022/05/02 01:28:56;;;;;;;5.45;3.15;;;17.10;62.90;;;;;;5039958;28;20033;-63
2022/05/02 01:31:22;;;;;;;5.22;3.30;;;17.10;62.90;;;;;;5037650;28;20087;-63
2022/05/02 01:33:48;;;;;;;5.13;3.30;;;17.10;62.90;;;;;;5038589;28;20428;-63
2022/05/02 01:36:15;;;;;;;6.20;3.17;;;17.10;62.90;;;;;;5040379;28;20055;-63
2022/05/02 01:38:41;;;;;;;4.93;3.22;;;17.10;62.90;;;;;;5031873;28;20037;-63
2022/05/02 01:41:07;;;;;;;6.53;3.40;;;17.10;62.90;;;;;;5042680;28;20060;-63
2022/05/02 01:43:33;;;;;;;5.95;3.53;;;17.10;62.90;;;;;;5042816;28;20033;-63
2022/05/02 01:45:59;;;;;;;6.13;3.17;;;17.10;62.90;;;;;;5044522;28;20102;-63
2022/05/02 01:48:25;;;;;;;5.75;3.42;;;17.10;63.00;;;;;;5040369;28;20509;-63
2022/05/02 01:50:51;;;;;;;5.53;3.35;;;17.10;63.00;;;;;;5034677;28;20028;-63
2022/05/02 01:53:17;;;;;;;5.97;3.40;;;17.10;63.00;;;;;;5033788;28;20029;-63
2022/05/02 01:55:42;;;;;;;5.80;3.10;;;17.10;63.00;;;;;;5045726;28;20032;-62
2022/05/02 01:58:08;;;;;;;5.10;2.92;;;17.10;63.00;;;;;;5039575;28;20048;-63
2022/05/02 02:00:34;;;;;;;6.35;3.28;;;17.10;63.00;;;;;;5033839;28;20047;-63
2022/05/02 02:02:59;;;;;;;5.95;3.30;;;17.10;63.00;;;;;;5033960;28;20494;-63
2022/05/02 02:08:09;;;;;;;5.80;3.27;;;17.10;63.00;;;;;;5035624;28;20381;-63
2022/05/02 02:10:35;;;;;;;5.15;3.28;;;17.10;63.00;;;;;;5043831;28;20097;-63
2022/05/02 02:13:00;;;;;;;4.40;2.92;;;17.00;63.00;;;;;;5045600;28;20029;-63
2022/05/02 02:15:26;;;;;;;5.65;3.25;;;17.00;62.90;;;;;;5039211;28;20026;-63
2022/05/02 02:17:52;;;;;;;5.05;3.13;;;17.10;63.00;;;;;;5037163;28;20040;-63
2022/05/02 02:20:17;;;;;;;5.97;3.70;;;17.10;63.00;;;;;;5033165;28;20029;-63
2022/05/02 02:22:43;;;;;;;5.90;3.20;;;17.00;63.00;;;;;;5041310;28;20030;-63
2022/05/02 02:25:09;;;;;;;4.95;2.95;;;17.00;63.00;;;;;;5038159;28;20041;-63
2022/05/02 02:27:34;;;;;;;5.50;3.28;;;17.00;63.00;;;;;;5042600;28;20022;-63
2022/05/02 02:30:00;;;;;;;6.25;3.30;;;17.00;63.00;;;;;;5036537;28;20029;-63
2022/05/02 02:32:26;;;;;;;4.72;3.05;;;17.00;63.10;;;;;;5040402;28;20117;-63
2022/05/02 02:34:51;;;;;;;5.45;3.20;;;17.00;63.10;;;;;;5041984;28;20104;-62
2022/05/02 02:37:17;;;;;;;5.63;3.20;;;17.00;63.10;;;;;;5055456;28;20025;-63
2022/05/02 02:39:43;;;;;;;5.72;3.13;;;17.00;64.10;;;;;;5048588;28;20095;-62
2022/05/02 02:42:09;;;;;;;6.15;3.35;;;17.00;63.10;;;;;;5068400;28;20041;-63
2022/05/02 02:44:35;;;;;;;5.07;3.22;;;17.00;63.10;;;;;;5036252;28;20401;-62
2022/05/02 02:47:01;;;;;;;4.88;2.85;;;17.00;63.10;;;;;;5039198;28;20033;-63
2022/05/02 02:49:26;;;;;;;4.57;2.78;;;17.00;63.10;;;;;;5039875;28;20029;-63
2022/05/02 02:51:52;;;;;;;5.32;3.05;;;17.00;63.10;;;;;;5048674;28;20344;-63
2022/05/02 02:54:17;;;;;;;7.22;3.20;;;17.00;63.10;;;;;;5042719;28;20025;-63
2022/05/02 02:56:43;;;;;;;5.80;3.17;;;17.00;63.10;;;;;;5042455;28;20029;-63
2022/05/02 02:59:09;;;;;;;5.30;3.08;;;17.00;63.10;;;;;;5037762;28;20025;-63
2022/05/02 03:01:34;;;;;;;4.82;2.97;;;17.00;63.10;;;;;;5042675;28;20021;-63
2022/05/02 03:06:01;;;;;;;5.47;3.42;;;17.00;63.10;;;;;;5045891;28;20033;-62
2022/05/02 03:06:46;;;;;;;6.70;3.00;;;17.00;63.10;;;;;;5039636;28;20036;-63
2022/05/02 03:09:11;;;;;;;5.60;3.50;;;17.00;63.20;;;;;;5042207;28;20089;-63
2022/05/02 03:11:37;;;;;;;4.90;2.97;;;17.00;63.20;;;;;;5046716;28;20041;-63
2022/05/02 03:14:02;;;;;;;5.38;3.17;;;17.00;63.20;;;;;;5051560;28;20052;-63
2022/05/02 03:16:28;;;;;;;5.15;3.13;;;17.00;63.20;;;;;;5044969;28;20030;-63
2022/05/02 03:18:54;;;;;;;5.63;2.83;;;17.00;63.20;;;;;;5046165;28;20066;-63
2022/05/02 03:21:19;;;;;;;4.65;2.85;;;17.00;63.20;;;;;;5042489;28;20036;-63
2022/05/02 03:23:45;;;;;;;5.75;3.05;;;16.90;63.20;;;;;;5038790;28;20079;-62
2022/05/02 03:26:10;;;;;;;4.25;2.90;;;16.90;63.20;;;;;;5060849;28;20044;-63
2022/05/02 03:28:36;;;;;;;4.70;3.20;;;16.90;63.20;;;;;;5039267;28;20044;-63
2022/05/02 03:31:02;;;;;;;6.05;3.10;;;16.90;63.20;;;;;;5046075;28;20037;-62
2022/05/02 03:33:28;;;;;;;5.28;3.03;;;16.90;63.00;;;;;;5048488;28;20020;-63
2022/05/02 03:35:54;;;;;;;5.65;3.13;;;16.90;62.90;;;;;;5044773;28;20086;-63
2022/05/02 03:38:20;;;;;;;6.22;3.00;;;16.90;62.90;;;;;;5038520;28;20490;-63
2022/05/02 03:40:45;;;;;;;4.93;2.88;;;16.90;63.00;;;;;;5043623;28;20025;-63
2022/05/02 03:43:11;;;;;;;6.82;2.85;;;16.90;63.00;;;;;;5042451;28;20112;-63
2022/05/02 03:45:37;;;;;;;4.97;2.60;;;16.90;63.00;;;;;;5042283;28;20489;-63
2022/05/02 03:48:03;;;;;;;5.40;3.17;;;16.90;63.10;;;;;;5038753;28;20020;-63
2022/05/02 03:50:29;;;;;;;6.50;3.03;;;16.90;63.20;;;;;;5046467;28;20037;-63
2022/05/02 03:52:54;;;;;;;6.28;3.40;;;17.00;63.40;;;;;;5051529;28;20092;-63
2022/05/02 03:55:20;;;;;;;6.50;3.15;;;16.90;63.40;;;;;;5034667;28;20107;-63
2022/05/02 03:57:46;;;;;;;6.22;3.10;;;16.90;63.50;;;;;;5045913;28;20025;-62
2022/05/02 04:00:12;;;;;;;4.53;2.88;;;16.90;63.50;;;;;;5038869;28;20091;-63
2022/05/02 04:02:37;;;;;;;4.63;2.92;;;16.90;63.50;;;;;;5039727;28;20040;-63
2022/05/02 04:05:03;;;;;;;6.82;2.90;;;16.90;63.50;;;;;;5041963;28;20643;-63
2022/05/02 04:07:29;;;;;;;7.13;3.10;;;16.90;63.50;;;;;;5043676;28;20036;-63
2022/05/02 04:09:55;;;;;;;5.07;3.00;;;16.90;63.50;;;;;;5043838;28;20043;-62
2022/05/02 04:12:20;;;;;;;5.15;2.92;;;16.90;63.50;;;;;;5049411;28;20027;-63
2022/05/02 04:14:46;;;;;;;5.45;2.95;;;16.90;63.60;;;;;;5035318;28;20410;-63
2022/05/02 04:17:12;;;;;;;5.75;3.08;;;16.90;63.70;;;;;;5044269;28;20541;-63
2022/05/02 04:19:37;;;;;;;6.30;3.20;;;16.90;63.80;;;;;;5044106;28;20044;-63
2022/05/02 04:22:03;;;;;;;5.43;2.85;;;16.90;63.80;;;;;;5051589;28;20508;-63
2022/05/02 04:24:29;;;;;;;5.85;2.63;;;16.90;63.70;;;;;;5043641;28;20108;-62
2022/05/02 04:26:56;;;;;;;7.82;3.00;;;16.90;63.70;;;;;;5039925;28;20127;-63
2022/05/02 04:29:22;;;;;;;6.15;2.88;;;16.90;63.80;;;;;;5041224;28;20091;-63
2022/05/02 04:31:48;;;;;;;4.88;2.80;;;16.90;63.90;;;;;;5039937;28;20029;-62
2022/05/02 04:34:14;;;;;;;5.68;3.22;;;16.90;63.90;;;;;;5042519;28;20030;-63
2022/05/02 04:36:39;;;;;;;6.95;2.97;;;16.90;63.90;;;;;;5042227;28;20035;-63
2022/05/02 04:39:05;;;;;;;7.40;2.92;;;16.90;64.00;;;;;;5034758;28;20025;-62
2022/05/02 04:41:31;;;;;;;3.92;2.50;;;16.90;63.90;;;;;;5045729;28;20091;-63
2022/05/02 04:43:56;;;;;;;5.95;2.97;;;16.90;63.90;;;;;;5047835;28;20108;-63
2022/05/02 04:46:22;;;;;;;6.65;3.00;;;16.90;63.90;;;;;;5053402;28;20033;-62
2022/05/02 04:48:48;;;;;;;5.40;3.00;;;16.90;63.90;;;;;;5044199;28;20026;-63
2022/05/02 04:51:13;;;;;;;5.55;2.67;;;16.90;63.90;;;;;;5035163;28;20119;-63
2022/05/02 04:53:39;;;;;;;4.68;3.00;;;16.90;64.00;;;;;;5037728;28;20029;-63
2022/05/02 04:56:05;;;;;;;5.70;2.72;;;16.90;63.90;;;;;;5038267;28;20035;-63
2022/05/02 04:58:30;;;;;;;5.28;2.88;;;16.90;63.90;;;;;;5043619;28;20083;-63
2022/05/02 05:00:56;;;;;;;5.43;2.78;;;16.90;63.90;;;;;;5044106;28;20025;-63
2022/05/02 05:03:22;;;;;;;5.10;2.70;;;16.90;63.90;;;;;;5042609;28;20060;-63
2022/05/02 05:05:48;;;;;;;5.28;2.72;;;16.90;63.80;;;;;;5037429;28;20116;-63
2022/05/02 05:08:14;;;;;;;7.25;2.70;;;16.90;63.90;;;;;;5034971;28;20026;-63
2022/05/02 05:11:04;;;;;;;6.72;2.92;;;16.90;63.90;;;;;;5047541;28;20033;-63
2022/05/02 05:13:38;;;;;;;5.65;2.70;;;16.90;63.90;;;;;;5029479;28;20474;-63
2022/05/02 05:16:21;;;;;;;5.57;2.78;;;16.90;63.80;;;;;;5029760;28;20096;-63
2022/05/02 05:19:24;;;;;;;4.68;2.60;;;16.90;63.70;;;;;;5028371;28;20503;-63
2022/05/02 05:22:14;;;;;;;6.18;2.70;;;16.90;63.70;;;;;;5029047;28;20087;-63
2022/05/02 05:25:06;;;;;;;6.05;2.88;;;16.90;63.70;;;;;;5026432;28;20033;-63
2022/05/02 05:27:48;;;;;;;5.82;2.67;;;16.90;64.00;;;;;;5046268;28;20067;-63
2022/05/02 05:30:16;;;;;;;6.85;2.80;;;16.90;64.00;;;;;;5028116;28;20026;-63
2022/05/02 05:33:01;;;;;;;6.25;2.97;;;16.90;63.90;;;;;;5046362;28;20032;-63
2022/05/02 05:35:53;;;;;;;;;;;16.90;64.10;;;;;;5046704;28;20033;-63
2022/05/02 05:38:26;;;;;;;6.95;2.90;;;16.90;64.00;;;;;;5000887;28;19957;-63
2022/05/02 05:41:00;;;;;;;7.22;2.55;;;16.90;64.10;;;;;;5006729;28;20148;-63
2022/05/02 05:43:32;;;;;;;5.15;2.80;;;16.90;64.10;;;;;;4990089;28;20041;-63
2022/05/02 05:45:57;;;;;;;7.25;2.80;;;16.90;64.10;;;;;;5005801;28;20049;-63
2022/05/02 05:48:32;;;;;;;8.30;2.80;;;16.90;64.10;;;;;;5004854;28;20030;-63
2022/05/02 05:51:09;;;;;;;7.18;3.00;;;16.90;64.10;;;;;;5004013;28;20042;-63
2022/05/02 05:54:16;;;;;;;7.85;2.85;;;16.80;63.90;;;;;;5007569;28;20037;-63
2022/05/02 05:57:03;;;;;;;5.18;2.63;;;16.90;64.00;;;;;;4966255;28;20071;-63
2022/05/02 05:59:50;;;;;;;5.68;2.60;;;16.80;63.90;;;;;;4966275;28;20237;-63
2022/05/02 06:02:21;;;;;;;6.43;2.88;;;16.80;64.00;;;;;;4968028;28;20459;-63
2022/05/02 06:04:50;;;;;;;4.85;2.40;;;16.80;64.00;;;;;;4973361;28;20046;-63
2022/05/02 06:07:20;;;;;;;5.38;2.60;;;16.80;64.00;;;;;;4973237;28;20541;-63
2022/05/02 06:09:48;;;;;;;5.72;2.60;;;16.80;64.60;;;;;;4972096;28;20035;-63
2022/05/02 06:12:14;;;;;;;7.13;2.60;;;16.80;63.90;;;;;;4969324;28;20065;-63
2022/05/02 06:20:12;;;;;;;5.97;2.77;;;16.80;64.00;;;;;;4955866;28;20042;-63
2022/05/02 06:22:39;;;;;;;7.95;2.70;;;16.80;64.00;;;;;;4968131;28;20039;-63
2022/05/02 06:25:05;;;;;;;4.88;2.70;;;16.80;64.00;;;;;;4976157;28;20518;-63
2022/05/02 06:27:32;;;;;;;5.00;2.55;;;16.80;64.00;;;;;;4967762;28;20144;-63
2022/05/02 06:29:58;;;;;;;6.95;2.63;;;16.80;64.00;;;;;;4984420;28;20075;-63
2022/05/02 06:32:24;;;;;;;5.43;2.80;;;16.80;64.00;;;;;;5047424;28;20021;-62
2022/05/02 06:34:49;;;;;;;6.10;2.70;;;16.80;64.00;;;;;;5026887;28;20040;-63
2022/05/02 06:37:50;;;;;;;4.90;2.67;;;16.80;64.00;;;;;;5045323;28;20079;-63
2022/05/02 06:40:33;;;;;;;5.03;2.53;;;16.80;63.90;;;;;;5051204;28;20397;-63
2022/05/02 06:43:20;;;;;;;7.15;2.50;;;16.80;64.00;;;;;;5071903;28;20112;-64
2022/05/02 06:45:54;;;;;;;4.72;2.53;;;16.80;64.00;;;;;;5069219;28;20038;-63
2022/05/02 06:48:22;;;;;;;7.80;2.85;;;16.80;64.00;;;;;;5055741;28;20104;-63
2022/05/02 06:50:55;;;;;;;4.72;2.50;;;16.80;64.00;;;;;;5049166;28;20059;-63
2022/05/02 06:53:32;;;;;;;4.20;2.60;;;16.80;64.00;;;;;;5069610;28;20529;-63
2022/05/02 06:56:20;;;;;;;6.18;2.80;;;16.80;64.00;;;;;;5050644;28;20058;-63
2022/05/02 06:59:02;;;;;;;6.35;2.60;;;16.80;64.00;;;;;;5072469;28;20376;-63
2022/05/02 07:01:31;;;;;;;7.50;3.00;;;16.80;64.00;;;;;;5044841;28;20113;-63
2022/05/02 07:04:15;;;;;;;5.70;2.58;;;16.80;64.00;;;;;;5045968;28;20135;-63
2022/05/02 07:06:55;;;;;;;5.88;2.75;;;16.80;64.00;;;;;;5045505;28;20550;-63
2022/05/02 07:09:24;;;;;;;6.88;2.40;;;16.80;64.00;;;;;;5042678;28;20025;-64
2022/05/02 07:12:00;;;;;;;6.22;2.35;;;16.80;63.90;;;;;;5042633;28;20120;-63
2022/05/02 07:14:37;;;;;;;6.22;2.50;;;16.80;64.00;;;;;;5037687;28;20031;-63
2022/05/02 07:17:07;;;;;;;8.05;2.78;;;16.80;64.00;;;;;;5044871;28;20352;-64
2022/05/02 07:20:10;;;;;;;5.80;2.97;;;16.80;63.90;;;;;;5043448;28;20029;-64
2022/05/02 07:22:37;;;;;;;6.53;2.75;;;16.80;63.90;;;;;;5069516;28;20062;-62
2022/05/02 07:25:07;;;;;;;5.45;2.80;;;16.80;64.10;;;;;;5045885;28;20045;-62
2022/05/02 07:27:38;;;;;;;4.30;2.47;;;16.80;64.10;;;;;;5045104;28;20387;-63
2022/05/02 07:30:04;;;;;;;5.55;2.50;;;16.80;64.30;;;;;;5038552;28;20033;-63
2022/05/02 07:32:30;;;;;;;5.15;2.50;;;16.80;64.30;;;;;;5041639;28;20028;-63
2022/05/02 07:34:56;;;;;;;8.00;3.30;;;16.90;64.40;;;;;;5072850;28;20025;-64
2022/05/02 07:37:22;;;;;;;6.90;3.22;;;16.80;64.50;;;;;;5052907;28;20068;-64
2022/05/02 07:39:50;;;;;;;4.97;2.60;;;16.80;65.60;;;;;;5047089;28;20029;-64
2022/05/02 07:42:18;;;;;;;4.53;2.40;;;16.80;64.50;;;;;;5053496;28;20029;-64
2022/05/02 07:44:44;;;;;;;4.82;2.50;;;16.80;64.70;;;;;;5053126;28;20055;-64
2022/05/02 07:47:11;;;;;;;5.50;2.70;;;16.90;64.70;;;;;;5039737;28;20030;-65
2022/05/02 07:49:37;;;;;;;3.92;2.40;;;16.90;64.70;;;;;;5056648;28;20029;-63
2022/05/02 07:52:03;;;;;;;5.22;2.60;;;16.80;64.60;;;;;;5043972;28;20049;-64
2022/05/02 07:54:29;;;;;;;4.60;2.60;;;16.80;64.60;;;;;;5044034;28;21142;-65
2022/05/02 07:57:00;;;;;;;4.57;2.38;;;16.90;64.70;;;;;;5039715;28;20044;-64
2022/05/02 07:59:33;;;;;;;6.10;2.67;;;16.80;64.60;;;;;;5041439;28;20041;-64
2022/05/02 08:01:59;;;;;;;5.97;2.47;;;16.80;64.60;;;;;;5051774;28;20031;-63
2022/05/02 08:04:26;;;;;;;4.90;2.47;;;16.80;65.60;;;;;;5053086;28;20033;-63
2022/05/02 08:07:00;;;;;;;4.05;2.40;;;16.80;64.50;;;;;;5050920;28;20114;-64
2022/05/02 08:09:42;;;;;;;4.63;2.45;;;16.80;64.50;;;;;;5050996;28;20497;-64
2022/05/02 08:12:28;;;;;;;6.50;2.78;;;16.80;64.50;;;;;;5071847;28;20071;-64
2022/05/02 08:15:01;;;;;;;5.57;2.65;;;16.80;64.50;;;;;;5049399;28;20033;-64
2022/05/02 08:17:55;;;;;;;6.75;2.47;;;16.90;64.70;;;;;;5036786;28;20049;-65
2022/05/02 08:20:31;;;;;;;4.60;2.30;;;16.80;64.50;;;;;;5045053;28;20091;-65
2022/05/02 08:29:33;;;;;;;4.25;2.30;;;16.90;64.50;;;;;;5044385;28;20726;-65
2022/05/02 08:32:02;;;;;;;5.10;2.35;;;16.90;64.30;;;;;;5039206;28;20048;-64
2022/05/02 08:34:38;;;;;;;5.38;2.45;;;16.90;64.40;;;;;;5046333;28;20021;-65
2022/05/02 08:37:13;;;;;;;6.30;2.45;;;16.90;64.10;;;;;;5041366;28;20029;-65
2022/05/02 08:40:05;;;;;;;5.70;2.53;;;16.90;64.40;;;;;;5048317;28;20024;-66
2022/05/02 08:43:01;;;;;;;7.63;2.40;;;16.90;64.30;;;;;;5032698;28;20033;-65
2022/05/02 08:45:34;;;;;;;4.30;2.50;;;16.90;64.20;;;;;;5030303;28;20048;-66
2022/05/02 08:48:43;;;;;;;6.18;2.35;;;16.90;64.20;;;;;;5013543;28;20029;-65
2022/05/02 08:51:33;;;;;;;5.57;2.38;;;16.90;64.20;;;;;;5038320;28;20041;-63
2022/05/02 08:54:07;;;;;;;4.85;2.50;;;17.00;64.30;;;;;;5027121;28;20567;-63
2022/05/02 08:56:52;;;;;;;4.47;2.40;;;16.90;64.20;;;;;;5022480;28;20025;-63
2022/05/02 08:59:18;;;;;;;;;;;16.90;64.00;;;;;;5026823;28;20033;-63
2022/05/02 09:02:25;;;;;;;4.95;2.40;;;16.90;64.10;;;;;;5030866;28;20397;-63
2022/05/02 09:05:16;;;;;;;4.82;2.60;;;16.90;64.20;;;;;;5017250;28;20451;-63
2022/05/02 09:08:08;;;;;;;3.83;2.15;;;16.90;64.10;;;;;;5015466;28;20056;-64
2022/05/02 09:10:56;;;;;;;4.03;2.42;;;16.90;64.00;;;;;;5012551;28;20073;-64
2022/05/02 09:13:54;;;;;;;8.38;2.28;;;17.00;64.20;;;;;;5024115;28;20056;-66
2022/05/02 09:16:53;;;;;;;6.00;2.30;;;16.90;63.90;;;;;;5014409;28;20021;-64
2022/05/02 09:19:43;;;;;;;4.88;2.53;;;17.00;64.00;;;;;;5028124;28;20122;-65
2022/05/02 09:22:14;;;;;;;5.15;2.42;;;17.00;64.20;;;;;;5044881;28;20092;-65
2022/05/02 09:25:07;;;;;;;5.10;2.50;;;17.00;64.20;;;;;;5045058;28;20025;-63
2022/05/02 09:27:57;;;;;;;5.22;2.35;;;16.90;64.20;;;;;;5047105;28;20059;-63
2022/05/02 09:30:44;;;;;;;4.55;2.75;;;17.00;64.20;;;;;;5042129;28;20461;-62
2022/05/02 09:33:37;;;;;;;5.03;2.40;;;17.00;64.20;;;;;;5038402;28;20093;-63
2022/05/02 09:36:46;;;;;;;4.63;2.60;;;17.00;64.20;;;;;;5046821;28;20037;-62
2022/05/02 09:39:13;;;;;;;4.65;2.40;;;17.00;64.40;;;;;;5021080;28;20128;-63
2022/05/02 09:41:51;;;;;;;4.07;2.47;;;17.00;64.30;;;;;;5018028;28;20083;-62
2022/05/02 09:51:21;;;;;;;5.85;2.40;;;17.00;64.30;;;;;;4981500;28;20050;-65
2022/05/02 09:53:59;;;;;;;6.82;2.80;;;17.00;64.30;;;;;;4927406;29;20626;-65
2022/05/02 09:56:39;;;;;;;4.03;2.40;;;17.00;64.40;;;;;;4930459;29;20532;-66
2022/05/02 09:59:19;;;;;;;5.07;2.70;;;17.00;64.40;;;;;;4921029;29;20058;-66
2022/05/02 10:01:46;;;;;;;3.88;2.53;;;17.00;64.40;;;;;;4931120;29;20036;-63
2022/05/02 10:04:36;;;;;;;6.00;2.80;;;17.00;64.40;;;;;;4907572;29;20091;-64
2022/05/02 10:07:08;;;;;;;6.50;2.58;;;17.00;64.20;;;;;;4902161;29;20452;-64
2022/05/02 10:09:49;;;;;;;5.97;3.00;;;17.00;64.30;;;;;;4916456;29;20048;-64
2022/05/02 10:12:30;;;;;;;16.60;6.70;;;17.00;64.20;;;;;;4893443;29;20040;-64
2022/05/02 10:14:59;;;;;;;10.25;6.20;;;17.00;64.10;;;;;;4889344;29;20154;-64
2022/05/02 10:17:32;;;;;;;9.75;5.38;;;17.00;64.10;;;;;;4888035;29;20539;-64
2022/05/02 10:20:17;;;;;;;9.13;4.70;;;17.10;64.10;;;;;;4868719;29;20041;-64
2022/05/02 10:22:53;;;;;;;7.97;4.18;;;17.10;64.10;;;;;;4893327;29;20132;-63
2022/05/02 10:25:24;;;;;;;8.20;4.57;;;17.00;64.20;;;;;;4891839;29;20032;-64
2022/05/02 10:28:29;;;;;;;10.25;4.63;;;17.00;64.00;;;;;;4948478;28;20543;-64
2022/05/02 10:31:19;;;;;;;10.75;5.43;;;17.00;64.20;;;;;;5048478;28;20024;-64
2022/05/02 10:33:55;;;;;;;9.93;4.30;;;17.10;64.20;;;;;;5041435;28;20021;-63
2022/05/02 10:36:42;;;;;;;8.35;4.10;;;17.00;64.20;;;;;;5038933;28;20036;-64
2022/05/02 10:39:38;;;;;;;11.27;4.80;;;17.10;64.40;;;;;;5041362;28;20418;-63
2022/05/02 10:42:06;;;;;;;14.43;4.65;;;17.10;64.20;;;;;;5039249;28;20033;-63
2022/05/02 10:44:56;;;;;;;11.85;4.70;;;17.00;64.20;;;;;;5035274;28;20052;-64
2022/05/02 10:47:21;;;;;;;8.85;4.20;;;17.10;64.30;;;;;;5033005;28;20041;-64
2022/05/02 10:49:53;;;;;;;8.40;4.25;;;17.10;64.30;;;;;;5053801;28;20036;-63
2022/05/02 10:52:43;;;;;;;9.25;4.57;;;17.00;64.30;;;;;;5069677;28;20026;-64
2022/05/02 10:55:33;;;;;;;11.15;4.80;;;17.10;64.30;;;;;;5043054;28;20033;-64
2022/05/02 10:58:10;;;;;;;12.05;4.60;;;17.10;64.40;;;;;;5042140;28;20045;-64
2022/05/02 11:00:56;;;;;;;9.63;4.82;;;17.10;64.40;;;;;;5044439;28;20024;-64
2022/05/02 11:03:46;;;;;;;9.10;4.57;;;17.10;64.40;;;;;;5043656;28;20511;-64
2022/05/02 11:06:18;;;;;;;8.85;4.38;;;17.10;64.40;;;;;;5041521;28;20067;-64
2022/05/02 11:08:50;;;;;;;8.23;4.32;;;17.10;64.30;;;;;;5036112;28;20490;-64
2022/05/02 11:11:42;;;;;;;12.60;4.50;;;17.10;64.40;;;;;;5052239;28;20036;-64
2022/05/02 11:14:25;;;;;;;8.35;4.43;;;17.10;64.40;;;;;;5040122;28;20026;-64
2022/05/02 11:17:14;;;;;;;8.30;4.32;;;17.10;64.40;;;;;;5048770;28;20083;-64
2022/05/02 11:22:43;;;;;;;9.23;4.20;;;17.10;64.30;;;;;;5047013;28;20064;-64
2022/05/02 11:25:21;;;;;;;10.27;4.20;;;17.20;64.30;;;;;;5070102;28;20036;-63
2022/05/02 11:28:01;;;;;;;10.27;4.13;;;17.20;64.20;;;;;;5050139;28;20427;-63
2022/05/02 11:30:28;;;;;;;8.90;4.28;;;17.20;64.20;;;;;;5043381;28;20124;-64
2022/05/02 11:33:00;;;;;;;9.60;4.30;;;17.20;64.10;;;;;;5035865;28;20509;-64
2022/05/02 11:35:35;;;;;;;8.40;4.15;;;17.20;63.90;;;;;;5036030;28;20036;-64
2022/05/02 11:38:15;;;;;;;8.52;3.97;;;17.30;64.00;;;;;;5051623;28;20030;-63
2022/05/02 11:40:46;;;;;;;11.00;4.50;;;17.30;63.90;;;;;;5048410;28;20018;-63
2022/05/02 11:43:14;;;;;;;9.13;4.63;;;17.30;63.90;;;;;;5042698;28;20040;-63
2022/05/02 11:45:44;;;;;;;10.15;4.25;;;17.40;63.90;;;;;;5044569;28;20063;-64
2022/05/02 11:48:31;;;;;;;8.90;4.53;;;17.40;63.80;;;;;;5036878;28;20025;-64
2022/05/02 11:50:57;;;;;;;8.60;4.30;;;17.40;63.70;;;;;;5043300;28;20032;-64
2022/05/02 11:53:24;;;;;;;9.25;4.13;;;17.50;63.80;;;;;;5032396;28;20446;-64
2022/05/02 11:55:50;;;;;;;8.25;4.40;;;17.40;63.60;;;;;;5054861;28;20445;-64
2022/05/02 11:58:26;;;;;;;13.38;4.40;;;17.50;63.60;;;;;;5067317;28;20029;-64
2022/05/02 12:01:01;;;;;;;8.38;4.18;;;17.50;63.50;;;;;;5048789;28;20565;-64
2022/05/02 12:03:27;;;;;;;;;;;17.50;63.50;;;;;;5041552;28;20056;-64
2022/05/02 12:06:02;;;;;;;8.00;3.90;;;17.50;63.50;;;;;;5073393;28;19927;-64
2022/05/02 12:08:34;;;;;;;;;;;17.50;63.50;;;;;;5034761;28;20116;-63
2022/05/02 12:11:07;;;;;;;8.45;4.25;;;17.50;63.50;;;;;;5042050;28;20511;-64
2022/05/02 12:13:35;;;;;;;8.38;4.07;;;17.60;63.40;;;;;;5047152;28;20444;-64
2022/05/02 12:16:08;;;;;;;8.48;4.00;;;17.60;63.50;;;;;;5050498;28;20083;-64
2022/05/02 12:18:54;;;;;;;9.60;4.47;;;17.70;63.50;;;;;;5040675;28;20104;-64
2022/05/02 12:21:20;;;;;;;8.43;4.03;;;17.70;63.30;;;;;;5043393;28;20047;-64
2022/05/02 12:23:46;;;;;;;7.43;3.80;;;17.70;63.40;;;;;;5035099;28;20466;-64
2022/05/02 12:26:20;;;;;;;8.95;3.92;;;17.80;63.30;;;;;;5034497;28;20034;-64
2022/05/02 12:28:48;;;;;;;9.18;3.97;;;17.80;63.30;;;;;;5040993;28;20486;-64
2022/05/02 12:31:15;;;;;;;9.27;4.07;;;17.80;63.20;;;;;;5042072;28;20390;-64
2022/05/02 12:33:43;;;;;;;8.75;3.97;;;17.80;63.20;;;;;;5054051;28;20419;-64
2022/05/02 12:36:16;;;;;;;9.50;4.00;;;17.90;63.10;;;;;;5043263;28;20035;-64
2022/05/02 12:38:47;;;;;;;7.93;3.88;;;17.90;63.00;;;;;;5038559;28;20400;-64
2022/05/02 12:41:13;;;;;;;9.50;4.38;;;17.90;62.90;;;;;;5046862;28;20027;-64
2022/05/02 12:43:44;;;;;;;9.70;4.00;;;18.00;63.00;;;;;;5072198;28;20037;-64
2022/05/02 12:46:10;;;;;;;9.23;4.60;;;18.00;63.00;;;;;;5061779;28;20053;-64
2022/05/02 12:48:37;;;;;;;11.13;4.53;;;18.00;62.80;;;;;;5046025;28;20174;-64
2022/05/02 12:51:03;;;;;;;8.93;4.40;;;18.00;62.80;;;;;;5037968;28;20072;-63
2022/05/02 12:56:15;;;;;;;9.32;4.60;;;18.00;62.70;;;;;;5040782;28;20032;-64
2022/05/02 13:01:29;;;;;;;8.48;4.60;;;18.00;62.60;;;;;;5041769;28;20060;-64
2022/05/02 13:03:57;;;;;;;10.02;4.50;;;18.00;62.60;;;;;;5070466;28;20025;-63
2022/05/02 13:06:23;;;;;;;9.10;4.45;;;18.10;62.60;;;;;;5040281;28;20055;-63
2022/05/02 13:08:49;;;;;;;8.05;4.40;;;18.10;62.70;;;;;;5035461;28;20021;-64
2022/05/02 13:11:21;;;;;;;10.57;4.68;;;18.10;62.60;;;;;;5064514;28;20410;-64
2022/05/02 13:13:52;;;;;;;11.32;4.72;;;18.20;62.70;;;;;;5041110;28;20684;-63
2022/05/02 13:16:28;;;;;;;8.10;4.30;;;18.20;62.60;;;;;;5040666;28;20524;-64
2022/05/02 13:18:55;;;;;;;8.10;4.25;;;18.20;62.50;;;;;;5038064;28;20444;-64
2022/05/02 13:21:20;;;;;;;9.50;4.55;;;18.20;62.50;;;;;;5039293;28;20056;-64
2022/05/02 13:23:51;;;;;;;10.00;4.30;;;18.20;62.60;;;;;;5041096;28;20490;-64
2022/05/02 13:26:44;;;;;;;8.65;4.20;;;18.20;62.50;;;;;;5037155;28;20478;-64
2022/05/02 13:29:30;;;;;;;8.45;4.32;;;18.20;62.50;;;;;;5042079;28;20538;-64
2022/05/02 13:32:03;;;;;;;9.38;4.40;;;18.20;62.50;;;;;;5040358;28;20136;-64
2022/05/02 13:34:35;;;;;;;9.77;4.45;;;18.20;62.50;;;;;;5041702;28;20035;-63
2022/05/02 13:37:19;;;;;;;8.27;4.55;;;18.20;62.50;;;;;;5040746;28;20512;-64
2022/05/02 13:40:01;;;;;;;8.50;4.47;;;18.20;62.60;;;;;;5047663;28;20042;-64
2022/05/02 13:42:50;;;;;;;7.40;3.92;;;18.20;62.50;;;;;;5045033;28;20100;-64
2022/05/02 13:45:54;;;;;;;8.02;4.63;;;18.30;62.70;;;;;;5042952;28;20446;-64
2022/05/02 13:48:31;;;;;;;9.10;4.30;;;18.20;62.60;;;;;;5040939;28;20086;-64